sensor_id;sensor_type;location;lat;lon;timestamp;pressure;altitude;pressure_sealevel;temperature;humidity
55590;BME280;41452;42.780;23.116;2022-12-18T00:01:02;95089.19;;;3.14;100.00
55590;BME280;41452;42.780;23.116;2022-12-18T00:03:32;95068.50;;;2.81;100.00
55590;BME280;41452;42.780;23.116;2022-12-18T00:05:58;95082.75;;;2.93;100.00
55590;BME280;41452;42.780;23.116;2022-12-18T00:08:23;95102.50;;;3.02;100.00
55590;BME280;41452;42.780;23.116;2022-12-18T00:10:49;95097.97;;;3.04;100.00
55590;BME280;41452;42.780;23.116;2022-12-18T00:13:14;95085.97;;;2.87;100.00
55590;BME280;41452;42.780;23.116;2022-12-18T00:15:40;95103.31;;;3.03;100.00
55590;BME280;41452;42.780;23.116;2022-12-18T00:18:05;95106.59;;;2.97;100.00
55590;BME280;41452;42.780;23.116;2022-12-18T00:20:35;95093.94;;;2.85;100.00
55590;BME280;41452;42.780;23.116;2022-12-18T00:23:01;95105.63;;;2.90;100.00
55590;BME280;41452;42.780;23.116;2022-12-18T00:25:26;95078.84;;;2.64;100.00
55590;BME280;41452;42.780;23.116;2022-12-18T00:27:51;95122.31;;;2.87;100.00
55590;BME280;41452;42.780;23.116;2022-12-18T00:30:17;95131.06;;;2.86;100.00
55590;BME280;41452;42.780;23.116;2022-12-18T00:32:42;95132.84;;;2.85;100.00
55590;BME280;41452;42.780;23.116;2022-12-18T00:35:08;95103.19;;;2.63;100.00
55590;BME280;41452;42.780;23.116;2022-12-18T00:37:34;95131.56;;;2.81;100.00
55590;BME280;41452;42.780;23.116;2022-12-18T00:39:59;95123.28;;;2.78;100.00
55590;BME280;41452;42.780;23.116;2022-12-18T00:42:25;95099.13;;;2.53;100.00
55590;BME280;41452;42.780;23.116;2022-12-18T00:45:09;95108.38;;;2.55;100.00
55590;BME280;41452;42.780;23.116;2022-12-18T00:47:35;95136.25;;;2.70;100.00
55590;BME280;41452;42.780;23.116;2022-12-18T00:50:00;95138.50;;;2.64;100.00
55590;BME280;41452;42.780;23.116;2022-12-18T00:52:25;95146.63;;;2.70;100.00
55590;BME280;41452;42.780;23.116;2022-12-18T00:54:51;95145.19;;;2.67;100.00
55590;BME280;41452;42.780;23.116;2022-12-18T00:57:16;95140.47;;;2.62;100.00
55590;BME280;41452;42.780;23.116;2022-12-18T00:59:41;95130.25;;;2.53;100.00
55590;BME280;41452;42.780;23.116;2022-12-18T01:02:07;95153.44;;;2.62;100.00
55590;BME280;41452;42.780;23.116;2022-12-18T01:04:32;95103.16;;;2.31;100.00
55590;BME280;41452;42.780;23.116;2022-12-18T01:06:58;95144.97;;;2.52;100.00
55590;BME280;41452;42.780;23.116;2022-12-18T01:09:23;95116.94;;;2.31;100.00
55590;BME280;41452;42.780;23.116;2022-12-18T01:11:49;95131.19;;;2.35;100.00
55590;BME280;41452;42.780;23.116;2022-12-18T01:14:14;95149.88;;;2.47;100.00
55590;BME280;41452;42.780;23.116;2022-12-18T01:16:40;95153.25;;;2.47;100.00
55590;BME280;41452;42.780;23.116;2022-12-18T01:19:05;95134.91;;;2.33;100.00
55590;BME280;41452;42.780;23.116;2022-12-18T01:21:31;95159.56;;;2.45;100.00
55590;BME280;41452;42.780;23.116;2022-12-18T01:23:56;95166.69;;;2.43;100.00
55590;BME280;41452;42.780;23.116;2022-12-18T01:26:22;95170.75;;;2.45;100.00
55590;BME280;41452;42.780;23.116;2022-12-18T01:28:48;95165.06;;;2.50;100.00
55590;BME280;41452;42.780;23.116;2022-12-18T01:33:41;95166.69;;;2.43;100.00
55590;BME280;41452;42.780;23.116;2022-12-18T01:36:07;95169.44;;;2.41;100.00
55590;BME280;41452;42.780;23.116;2022-12-18T01:38:32;95157.09;;;2.27;100.00
55590;BME280;41452;42.780;23.116;2022-12-18T01:40:59;95174.97;;;2.38;100.00
55590;BME280;41452;42.780;23.116;2022-12-18T01:43:48;95173.00;;;2.40;100.00
55590;BME280;41452;42.780;23.116;2022-12-18T01:46:14;95141.19;;;2.05;100.00
55590;BME280;41452;42.780;23.116;2022-12-18T01:48:41;95182.22;;;2.26;100.00
55590;BME280;41452;42.780;23.116;2022-12-18T01:51:09;95184.97;;;2.25;100.00
55590;BME280;41452;42.780;23.116;2022-12-18T01:53:36;95190.50;;;2.30;100.00
55590;BME280;41452;42.780;23.116;2022-12-18T01:56:01;95191.94;;;2.33;100.00
55590;BME280;41452;42.780;23.116;2022-12-18T01:58:52;95189.34;;;2.24;100.00
55590;BME280;41452;42.780;23.116;2022-12-18T02:01:22;95178.44;;;2.04;100.00
55590;BME280;41452;42.780;23.116;2022-12-18T02:03:48;95189.81;;;2.20;100.00
55590;BME280;41452;42.780;23.116;2022-12-18T02:06:21;95188.84;;;2.21;100.00
55590;BME280;41452;42.780;23.116;2022-12-18T02:17:36;95212.94;;;2.13;100.00
55590;BME280;41452;42.780;23.116;2022-12-18T02:27:52;95210.03;;;2.16;100.00
55590;BME280;41452;42.780;23.116;2022-12-18T02:30:19;95197.38;;;2.13;100.00
55590;BME280;41452;42.780;23.116;2022-12-18T02:32:49;95200.97;;;2.12;100.00
55590;BME280;41452;42.780;23.116;2022-12-18T02:35:23;95196.97;;;1.92;100.00
55590;BME280;41452;42.780;23.116;2022-12-18T02:37:53;95167.13;;;1.71;100.00
55590;BME280;41452;42.780;23.116;2022-12-18T02:40:20;95200.34;;;1.84;100.00
55590;BME280;41452;42.780;23.116;2022-12-18T02:42:47;95219.41;;;2.01;100.00
55590;BME280;41452;42.780;23.116;2022-12-18T02:45:12;95201.50;;;1.81;100.00
55590;BME280;41452;42.780;23.116;2022-12-18T02:47:40;95220.50;;;1.98;100.00
55590;BME280;41452;42.780;23.116;2022-12-18T03:01:19;95119.84;;;1.35;100.00
55590;BME280;41452;42.780;23.116;2022-12-18T03:04:11;95219.00;;;1.87;100.00
55590;BME280;41452;42.780;23.116;2022-12-18T03:06:46;95220.63;;;1.88;100.00
55590;BME280;41452;42.780;23.116;2022-12-18T03:09:19;95130.31;;;1.25;100.00
55590;BME280;41452;42.780;23.116;2022-12-18T03:11:50;95227.69;;;1.78;100.00
55590;BME280;41452;42.780;23.116;2022-12-18T03:14:37;95233.69;;;1.79;100.00
55590;BME280;41452;42.780;23.116;2022-12-18T03:17:08;95229.31;;;1.79;100.00
55590;BME280;41452;42.780;23.116;2022-12-18T03:19:34;95210.22;;;1.54;100.00
55590;BME280;41452;42.780;23.116;2022-12-18T03:22:02;95244.31;;;1.67;100.00
55590;BME280;41452;42.780;23.116;2022-12-18T03:24:31;95244.19;;;1.77;100.00
55590;BME280;41452;42.780;23.116;2022-12-18T03:27:06;95261.06;;;1.81;100.00
55590;BME280;41452;42.780;23.116;2022-12-18T03:29:47;95257.13;;;1.77;100.00
55590;BME280;41452;42.780;23.116;2022-12-18T03:32:29;95236.28;;;1.52;100.00
55590;BME280;41452;42.780;23.116;2022-12-18T03:34:58;95238.13;;;1.60;100.00
55590;BME280;41452;42.780;23.116;2022-12-18T03:37:26;95249.22;;;1.52;100.00
55590;BME280;41452;42.780;23.116;2022-12-18T03:39:51;95265.63;;;1.61;100.00
55590;BME280;41452;42.780;23.116;2022-12-18T03:42:30;95245.25;;;1.40;100.00
55590;BME280;41452;42.780;23.116;2022-12-18T03:45:11;95267.34;;;1.52;100.00
55590;BME280;41452;42.780;23.116;2022-12-18T03:47:49;95274.75;;;1.47;100.00
55590;BME280;41452;42.780;23.116;2022-12-18T03:53:55;95282.38;;;1.49;100.00
55590;BME280;41452;42.780;23.116;2022-12-18T03:55:56;95282.06;;;1.52;100.00
55590;BME280;41452;42.780;23.116;2022-12-18T03:58:25;95280.13;;;1.54;100.00
55590;BME280;41452;42.780;23.116;2022-12-18T04:00:54;95290.78;;;1.51;100.00
55590;BME280;41452;42.780;23.116;2022-12-18T04:03:22;95275.66;;;1.38;100.00
55590;BME280;41452;42.780;23.116;2022-12-18T04:05:50;95307.44;;;1.48;100.00
55590;BME280;41452;42.780;23.116;2022-12-18T04:08:16;95263.03;;;1.17;100.00
55590;BME280;41452;42.780;23.116;2022-12-18T04:10:42;95298.66;;;1.41;100.00
55590;BME280;41452;42.780;23.116;2022-12-18T04:13:08;95307.97;;;1.52;100.00
55590;BME280;41452;42.780;23.116;2022-12-18T04:15:35;95314.16;;;1.59;100.00
55590;BME280;41452;42.780;23.116;2022-12-18T04:18:01;95303.22;;;1.47;100.00
55590;BME280;41452;42.780;23.116;2022-12-18T04:20:27;95322.72;;;1.60;100.00
55590;BME280;41452;42.780;23.116;2022-12-18T04:22:52;95324.00;;;1.56;100.00
55590;BME280;41452;42.780;23.116;2022-12-18T04:25:18;95325.94;;;1.54;100.00
55590;BME280;41452;42.780;23.116;2022-12-18T04:27:43;95326.22;;;1.50;100.00
55590;BME280;41452;42.780;23.116;2022-12-18T04:30:09;95317.06;;;1.38;100.00
55590;BME280;41452;42.780;23.116;2022-12-18T04:32:35;95330.88;;;1.47;100.00
55590;BME280;41452;42.780;23.116;2022-12-18T04:35:00;95326.00;;;1.44;100.00
55590;BME280;41452;42.780;23.116;2022-12-18T04:37:26;95341.09;;;1.48;100.00
55590;BME280;41452;42.780;23.116;2022-12-18T04:39:51;95351.47;;;1.48;100.00
55590;BME280;41452;42.780;23.116;2022-12-18T04:42:16;95354.34;;;1.45;100.00
55590;BME280;41452;42.780;23.116;2022-12-18T04:44:42;95347.19;;;1.39;100.00
55590;BME280;41452;42.780;23.116;2022-12-18T04:47:07;95333.50;;;1.29;100.00
55590;BME280;41452;42.780;23.116;2022-12-18T04:49:33;95344.88;;;1.36;100.00
55590;BME280;41452;42.780;23.116;2022-12-18T04:51:58;95352.72;;;1.44;100.00
55590;BME280;41452;42.780;23.116;2022-12-18T04:54:23;95353.81;;;1.42;100.00
55590;BME280;41452;42.780;23.116;2022-12-18T04:56:49;95359.50;;;1.45;100.00
55590;BME280;41452;42.780;23.116;2022-12-18T04:59:14;95363.66;;;1.38;100.00
55590;BME280;41452;42.780;23.116;2022-12-18T05:01:40;95368.78;;;1.48;100.00
55590;BME280;41452;42.780;23.116;2022-12-18T05:04:05;95351.19;;;1.33;100.00
55590;BME280;41452;42.780;23.116;2022-12-18T05:06:31;95372.97;;;1.31;100.00
55590;BME280;41452;42.780;23.116;2022-12-18T05:08:56;95375.72;;;1.29;100.00
55590;BME280;41452;42.780;23.116;2022-12-18T05:11:21;95341.63;;;0.98;100.00
55590;BME280;41452;42.780;23.116;2022-12-18T05:13:47;95389.16;;;1.15;100.00
55590;BME280;41452;42.780;23.116;2022-12-18T05:16:13;95392.72;;;1.14;100.00
55590;BME280;41452;42.780;23.116;2022-12-18T05:18:38;95400.34;;;1.16;100.00
55590;BME280;41452;42.780;23.116;2022-12-18T05:21:04;95399.06;;;1.20;100.00
55590;BME280;41452;42.780;23.116;2022-12-18T05:23:30;95353.13;;;0.86;100.00
55590;BME280;41452;42.780;23.116;2022-12-18T05:25:58;95402.22;;;1.13;100.00
55590;BME280;41452;42.780;23.116;2022-12-18T05:28:25;95411.41;;;1.08;100.00
55590;BME280;41452;42.780;23.116;2022-12-18T05:30:52;95418.50;;;1.06;100.00
55590;BME280;41452;42.780;23.116;2022-12-18T05:33:18;95370.25;;;0.87;100.00
55590;BME280;41452;42.780;23.116;2022-12-18T05:35:44;95384.97;;;0.86;100.00
55590;BME280;41452;42.780;23.116;2022-12-18T05:38:15;95416.44;;;1.09;100.00
55590;BME280;41452;42.780;23.116;2022-12-18T05:40:42;95422.72;;;1.07;100.00
55590;BME280;41452;42.780;23.116;2022-12-18T05:43:08;95363.56;;;0.66;100.00
55590;BME280;41452;42.780;23.116;2022-12-18T05:45:37;95411.84;;;1.03;100.00
55590;BME280;41452;42.780;23.116;2022-12-18T05:48:03;95427.38;;;1.03;100.00
55590;BME280;41452;42.780;23.116;2022-12-18T05:50:28;95412.69;;;0.94;100.00
55590;BME280;41452;42.780;23.116;2022-12-18T05:52:54;95386.50;;;0.79;100.00
55590;BME280;41452;42.780;23.116;2022-12-18T05:55:19;95427.06;;;1.06;100.00
55590;BME280;41452;42.780;23.116;2022-12-18T05:57:45;95425.19;;;0.99;100.00
55590;BME280;41452;42.780;23.116;2022-12-18T06:00:10;95404.84;;;0.86;100.00
55590;BME280;41452;42.780;23.116;2022-12-18T06:02:36;95437.72;;;1.03;100.00
55590;BME280;41452;42.780;23.116;2022-12-18T06:05:02;95447.09;;;1.04;100.00
55590;BME280;41452;42.780;23.116;2022-12-18T06:07:27;95458.97;;;0.97;100.00
55590;BME280;41452;42.780;23.116;2022-12-18T06:09:52;95431.00;;;0.83;100.00
55590;BME280;41452;42.780;23.116;2022-12-18T06:12:18;95448.63;;;0.97;100.00
55590;BME280;41452;42.780;23.116;2022-12-18T06:14:43;95461.66;;;1.05;100.00
55590;BME280;41452;42.780;23.116;2022-12-18T06:17:08;95454.84;;;1.04;100.00
55590;BME280;41452;42.780;23.116;2022-12-18T06:19:34;95388.13;;;0.52;100.00
55590;BME280;41452;42.780;23.116;2022-12-18T06:21:59;95365.75;;;0.33;100.00
55590;BME280;41452;42.780;23.116;2022-12-18T06:24:25;95479.38;;;1.00;100.00
55590;BME280;41452;42.780;23.116;2022-12-18T06:26:50;95457.63;;;0.93;100.00
55590;BME280;41452;42.780;23.116;2022-12-18T06:29:15;95422.94;;;0.58;100.00
55590;BME280;41452;42.780;23.116;2022-12-18T06:31:41;95482.91;;;0.99;100.00
55590;BME280;41452;42.780;23.116;2022-12-18T06:34:06;95433.78;;;0.71;100.00
55590;BME280;41452;42.780;23.116;2022-12-18T06:36:32;95484.03;;;0.97;100.00
55590;BME280;41452;42.780;23.116;2022-12-18T06:38:57;95430.81;;;0.56;100.00
55590;BME280;41452;42.780;23.116;2022-12-18T06:41:23;95492.22;;;0.92;100.00
55590;BME280;41452;42.780;23.116;2022-12-18T06:43:49;95496.44;;;0.93;100.00
55590;BME280;41452;42.780;23.116;2022-12-18T06:46:14;95501.22;;;0.88;100.00
55590;BME280;41452;42.780;23.116;2022-12-18T06:48:40;95481.66;;;0.75;100.00
55590;BME280;41452;42.780;23.116;2022-12-18T06:51:05;95518.47;;;0.97;100.00
55590;BME280;41452;42.780;23.116;2022-12-18T06:53:31;95509.66;;;0.90;100.00
55590;BME280;41452;42.780;23.116;2022-12-18T06:56:05;95477.06;;;0.69;100.00
55590;BME280;41452;42.780;23.116;2022-12-18T06:58:31;95513.88;;;0.91;100.00
55590;BME280;41452;42.780;23.116;2022-12-18T07:01:01;95521.91;;;0.88;100.00
55590;BME280;41452;42.780;23.116;2022-12-18T07:03:27;95522.03;;;0.86;100.00
55590;BME280;41452;42.780;23.116;2022-12-18T07:05:52;95476.94;;;0.61;100.00
55590;BME280;41452;42.780;23.116;2022-12-18T07:08:17;95486.31;;;0.62;100.00
55590;BME280;41452;42.780;23.116;2022-12-18T07:10:43;95525.31;;;0.88;100.00
55590;BME280;41452;42.780;23.116;2022-12-18T07:13:09;95521.63;;;0.91;100.00
55590;BME280;41452;42.780;23.116;2022-12-18T07:15:34;95525.84;;;0.92;100.00
55590;BME280;41452;42.780;23.116;2022-12-18T07:17:59;95515.66;;;0.81;100.00
55590;BME280;41452;42.780;23.116;2022-12-18T07:20:25;95520.53;;;0.93;100.00
55590;BME280;41452;42.780;23.116;2022-12-18T07:22:50;95525.75;;;0.84;100.00
55590;BME280;41452;42.780;23.116;2022-12-18T07:25:15;95529.41;;;0.91;100.00
55590;BME280;41452;42.780;23.116;2022-12-18T07:27:41;95484.97;;;0.58;100.00
55590;BME280;41452;42.780;23.116;2022-12-18T07:30:07;95545.59;;;0.93;100.00
55590;BME280;41452;42.780;23.116;2022-12-18T07:32:32;95535.78;;;0.97;100.00
55590;BME280;41452;42.780;23.116;2022-12-18T07:34:57;95539.28;;;0.95;100.00
55590;BME280;41452;42.780;23.116;2022-12-18T07:37:23;95535.78;;;0.97;100.00
55590;BME280;41452;42.780;23.116;2022-12-18T07:39:48;95545.44;;;0.94;100.00
55590;BME280;41452;42.780;23.116;2022-12-18T07:42:14;95539.06;;;0.89;100.00
55590;BME280;41452;42.780;23.116;2022-12-18T07:45:01;95541.66;;;0.89;100.00
55590;BME280;41452;42.780;23.116;2022-12-18T07:47:27;95561.38;;;1.00;100.00
55590;BME280;41452;42.780;23.116;2022-12-18T07:49:53;95560.25;;;1.02;100.00
55590;BME280;41452;42.780;23.116;2022-12-18T07:52:18;95554.66;;;1.07;100.00
55590;BME280;41452;42.780;23.116;2022-12-18T07:54:44;95559.13;;;1.05;100.00
55590;BME280;41452;42.780;23.116;2022-12-18T07:57:09;95560.25;;;1.02;100.00
55590;BME280;41452;42.780;23.116;2022-12-18T07:59:35;95545.31;;;0.96;100.00
55590;BME280;41452;42.780;23.116;2022-12-18T08:02:01;95548.25;;;1.01;100.00
55590;BME280;41452;42.780;23.116;2022-12-18T08:04:26;95574.66;;;1.05;100.00
55590;BME280;41452;42.780;23.116;2022-12-18T08:06:52;95573.31;;;1.10;100.00
55590;BME280;41452;42.780;23.116;2022-12-18T08:09:17;95578.44;;;1.20;100.00
55590;BME280;41452;42.780;23.116;2022-12-18T08:11:43;95583.06;;;1.17;100.00
55590;BME280;41452;42.780;23.116;2022-12-18T08:14:08;95559.66;;;1.08;100.00
55590;BME280;41452;42.780;23.116;2022-12-18T08:16:35;95524.38;;;0.80;100.00
55590;BME280;41452;42.780;23.116;2022-12-18T08:19:00;95582.88;;;1.28;100.00
55590;BME280;41452;42.780;23.116;2022-12-18T08:21:28;95597.19;;;1.32;100.00
55590;BME280;41452;42.780;23.116;2022-12-18T08:23:55;95588.47;;;1.33;100.00
55590;BME280;41452;42.780;23.116;2022-12-18T08:26:22;95592.69;;;1.34;100.00
55590;BME280;41452;42.780;23.116;2022-12-18T08:28:48;95590.66;;;1.28;100.00
55590;BME280;41452;42.780;23.116;2022-12-18T08:31:14;95597.19;;;1.32;100.00
55590;BME280;41452;42.780;23.116;2022-12-18T08:33:40;95602.38;;;1.32;100.00
55590;BME280;41452;42.780;23.116;2022-12-18T08:36:06;95605.91;;;1.31;100.00
55590;BME280;41452;42.780;23.116;2022-12-18T08:38:32;95622.81;;;1.35;100.00
55590;BME280;41452;42.780;23.116;2022-12-18T08:41:10;95617.47;;;1.37;100.00
55590;BME280;41452;42.780;23.116;2022-12-18T08:43:35;95615.03;;;1.35;100.00
55590;BME280;41452;42.780;23.116;2022-12-18T08:46:21;95551.56;;;0.93;100.00
55590;BME280;41452;42.780;23.116;2022-12-18T08:48:47;95618.16;;;1.39;100.00
55590;BME280;41452;42.780;23.116;2022-12-18T08:51:12;95621.28;;;1.42;100.00
55590;BME280;41452;42.780;23.116;2022-12-18T08:53:38;95599.88;;;1.40;100.00
55590;BME280;41452;42.780;23.116;2022-12-18T08:56:04;95612.41;;;1.45;100.00
55590;BME280;41452;42.780;23.116;2022-12-18T08:58:30;95616.19;;;1.50;100.00
55590;BME280;41452;42.780;23.116;2022-12-18T09:01:05;95615.25;;;1.51;100.00
55590;BME280;41452;42.780;23.116;2022-12-18T09:03:32;95600.03;;;1.39;100.00
55590;BME280;41452;42.780;23.116;2022-12-18T09:05:58;95591.75;;;1.35;100.00
55590;BME280;41452;42.780;23.116;2022-12-18T09:08:23;95542.78;;;1.14;100.00
55590;BME280;41452;42.780;23.116;2022-12-18T09:10:50;95579.63;;;1.26;100.00
55590;BME280;41452;42.780;23.116;2022-12-18T09:13:16;95603.16;;;1.42;100.00
55590;BME280;41452;42.780;23.116;2022-12-18T09:15:43;95595.81;;;1.38;100.00
55590;BME280;41452;42.780;23.116;2022-12-18T09:18:10;95621.09;;;1.54;100.00
55590;BME280;41452;42.780;23.116;2022-12-18T09:20:37;95607.47;;;1.51;100.00
55590;BME280;41452;42.780;23.116;2022-12-18T09:23:03;95579.75;;;1.34;100.00
55590;BME280;41452;42.780;23.116;2022-12-18T09:25:29;95608.66;;;1.57;100.00
55590;BME280;41452;42.780;23.116;2022-12-18T09:27:58;95618.44;;;1.63;100.00
55590;BME280;41452;42.780;23.116;2022-12-18T09:30:24;95620.09;;;1.64;100.00
55590;BME280;41452;42.780;23.116;2022-12-18T09:32:49;95605.03;;;1.50;100.00
55590;BME280;41452;42.780;23.116;2022-12-18T09:35:15;95622.25;;;1.69;100.00
55590;BME280;41452;42.780;23.116;2022-12-18T09:37:40;95618.16;;;1.66;100.00
55590;BME280;41452;42.780;23.116;2022-12-18T09:40:13;95619.84;;;1.58;100.00
55590;BME280;41452;42.780;23.116;2022-12-18T09:42:39;95598.44;;;1.56;100.00
55590;BME280;41452;42.780;23.116;2022-12-18T09:45:07;95591.09;;;1.51;100.00
55590;BME280;41452;42.780;23.116;2022-12-18T09:47:39;95556.34;;;1.26;100.00
55590;BME280;41452;42.780;23.116;2022-12-18T09:50:36;95570.97;;;1.45;100.00
55590;BME280;41452;42.780;23.116;2022-12-18T09:53:06;95599.22;;;1.66;100.00
55590;BME280;41452;42.780;23.116;2022-12-18T09:55:38;95605.84;;;1.78;100.00
55590;BME280;41452;42.780;23.116;2022-12-18T10:00:41;95612.34;;;1.82;100.00
55590;BME280;41452;42.780;23.116;2022-12-18T10:03:11;95572.94;;;1.61;100.00
55590;BME280;41452;42.780;23.116;2022-12-18T10:06:08;95610.53;;;1.93;100.00
55590;BME280;41452;42.780;23.116;2022-12-18T10:13:58;95605.41;;;1.83;100.00
55590;BME280;41452;42.780;23.116;2022-12-18T10:21:25;95608.91;;;2.09;100.00
55590;BME280;41452;42.780;23.116;2022-12-18T10:26:40;95616.09;;;1.98;100.00
55590;BME280;41452;42.780;23.116;2022-12-18T10:29:14;95616.81;;;1.90;100.00
55590;BME280;41452;42.780;23.116;2022-12-18T10:31:40;95623.63;;;1.91;100.00
55590;BME280;41452;42.780;23.116;2022-12-18T10:34:10;95588.25;;;1.82;100.00
55590;BME280;41452;42.780;23.116;2022-12-18T10:36:36;95547.09;;;1.51;100.00
55590;BME280;41452;42.780;23.116;2022-12-18T10:39:24;95612.50;;;1.81;100.00
55590;BME280;41452;42.780;23.116;2022-12-18T10:42:10;95614.81;;;1.84;100.00
55590;BME280;41452;42.780;23.116;2022-12-18T10:44:36;95616.13;;;1.88;100.00
55590;BME280;41452;42.780;23.116;2022-12-18T10:47:09;95592.94;;;1.68;100.00
55590;BME280;41452;42.780;23.116;2022-12-18T10:49:36;95606.50;;;1.80;100.00
55590;BME280;41452;42.780;23.116;2022-12-18T10:52:27;95612.75;;;1.87;100.00
55590;BME280;41452;42.780;23.116;2022-12-18T10:54:57;95610.16;;;1.87;100.00
55590;BME280;41452;42.780;23.116;2022-12-18T10:59:53;95611.63;;;1.90;100.00
55590;BME280;41452;42.780;23.116;2022-12-18T11:02:27;95604.09;;;1.97;100.00
55590;BME280;41452;42.780;23.116;2022-12-18T11:04:53;95602.63;;;1.94;100.00
55590;BME280;41452;42.780;23.116;2022-12-18T11:07:18;95598.25;;;1.95;100.00
55590;BME280;41452;42.780;23.116;2022-12-18T11:09:43;95592.81;;;1.88;100.00
55590;BME280;41452;42.780;23.116;2022-12-18T11:12:28;95552.47;;;1.67;100.00
55590;BME280;41452;42.780;23.116;2022-12-18T11:14:55;95579.34;;;1.84;100.00
55590;BME280;41452;42.780;23.116;2022-12-18T11:17:33;95618.34;;;2.11;100.00
55590;BME280;41452;42.780;23.116;2022-12-18T11:20:05;95617.91;;;2.15;100.00
55590;BME280;41452;42.780;23.116;2022-12-18T11:22:36;95611.75;;;2.16;100.00
55590;BME280;41452;42.780;23.116;2022-12-18T11:27:38;95624.13;;;2.22;100.00
55590;BME280;41452;42.780;23.116;2022-12-18T11:32:48;95627.66;;;2.21;100.00
55590;BME280;41452;42.780;23.116;2022-12-18T11:35:28;95580.22;;;2.03;100.00
55590;BME280;41452;42.780;23.116;2022-12-18T11:38:02;95604.19;;;2.23;100.00
55590;BME280;41452;42.780;23.116;2022-12-18T11:40:36;95621.16;;;2.35;100.00
55590;BME280;41452;42.780;23.116;2022-12-18T11:43:10;95617.06;;;2.33;100.00
55590;BME280;41452;42.780;23.116;2022-12-18T11:45:48;95616.50;;;2.39;100.00
55590;BME280;41452;42.780;23.116;2022-12-18T11:48:17;95616.50;;;2.39;100.00
55590;BME280;41452;42.780;23.116;2022-12-18T11:50:51;95584.88;;;2.17;100.00
55590;BME280;41452;42.780;23.116;2022-12-18T11:53:18;95578.00;;;2.08;100.00
55590;BME280;41452;42.780;23.116;2022-12-18T12:17:57;95562.97;;;2.12;100.00
55590;BME280;41452;42.780;23.116;2022-12-18T12:26:02;95620.78;;;2.48;100.00
55590;BME280;41452;42.780;23.116;2022-12-18T12:34:03;95585.53;;;2.19;100.00
55590;BME280;41452;42.780;23.116;2022-12-18T12:39:37;95619.91;;;2.39;100.00
55590;BME280;41452;42.780;23.116;2022-12-18T12:42:12;95617.06;;;2.33;100.00
55590;BME280;41452;42.780;23.116;2022-12-18T12:44:58;95602.03;;;2.18;100.00
55590;BME280;41452;42.780;23.116;2022-12-18T12:47:34;95630.34;;;2.30;100.00
55590;BME280;41452;42.780;23.116;2022-12-18T12:50:05;95633.66;;;2.22;100.00
55590;BME280;41452;42.780;23.116;2022-12-18T12:52:47;95614.72;;;2.21;100.00
55590;BME280;41452;42.780;23.116;2022-12-18T12:55:18;95621.53;;;2.22;100.00
55590;BME280;41452;42.780;23.116;2022-12-18T12:57:51;95609.75;;;2.10;100.00
55590;BME280;41452;42.780;23.116;2022-12-18T13:00:20;95631.81;;;2.32;100.00
55590;BME280;41452;42.780;23.116;2022-12-18T13:03:12;95636.50;;;2.28;100.00
55590;BME280;41452;42.780;23.116;2022-12-18T13:05:51;95629.38;;;2.31;100.00
55590;BME280;41452;42.780;23.116;2022-12-18T13:08:24;95639.47;;;2.34;100.00
55590;BME280;41452;42.780;23.116;2022-12-18T13:10:56;95624.28;;;2.21;100.00
55590;BME280;41452;42.780;23.116;2022-12-18T13:14:00;95598.19;;;2.04;100.00
55590;BME280;41452;42.780;23.116;2022-12-18T13:16:26;95628.66;;;2.20;100.00
55590;BME280;41452;42.780;23.116;2022-12-18T13:18:54;95629.69;;;2.27;100.00
55590;BME280;41452;42.780;23.116;2022-12-18T13:23:50;95627.00;;;2.19;100.00
55590;BME280;41452;42.780;23.116;2022-12-18T13:31:11;95657.69;;;2.24;100.00
55590;BME280;41452;42.780;23.116;2022-12-18T13:33:38;95669.09;;;2.31;100.00
55590;BME280;41452;42.780;23.116;2022-12-18T13:38:42;95652.97;;;2.09;100.00
55590;BME280;41452;42.780;23.116;2022-12-18T13:43:45;95656.75;;;1.97;100.00
55590;BME280;41452;42.780;23.116;2022-12-18T13:46:28;95655.63;;;2.00;100.00
55590;BME280;41452;42.780;23.116;2022-12-18T13:51:41;95688.16;;;2.12;100.00
55590;BME280;41452;42.780;23.116;2022-12-18T13:56:58;95646.31;;;1.79;100.00
55590;BME280;41452;42.780;23.116;2022-12-18T13:59:25;95678.44;;;1.96;100.00
55590;BME280;41452;42.780;23.116;2022-12-18T14:01:56;95647.44;;;1.77;100.00
55590;BME280;41452;42.780;23.116;2022-12-18T14:04:31;95686.84;;;2.08;100.00
55590;BME280;41452;42.780;23.116;2022-12-18T14:07:02;95641.13;;;1.79;100.00
55590;BME280;41452;42.780;23.116;2022-12-18T14:09:36;95692.56;;;2.02;100.00
55590;BME280;41452;42.780;23.116;2022-12-18T14:12:02;95684.28;;;1.98;100.00
55590;BME280;41452;42.780;23.116;2022-12-18T14:14:48;95686.63;;;1.92;100.00
55590;BME280;41452;42.780;23.116;2022-12-18T14:17:15;95679.81;;;1.90;100.00
55590;BME280;41452;42.780;23.116;2022-12-18T14:19:49;95674.53;;;1.82;100.00
55590;BME280;41452;42.780;23.116;2022-12-18T14:22:20;95654.03;;;1.61;100.00
55590;BME280;41452;42.780;23.116;2022-12-18T14:24:47;95685.00;;;1.90;100.00
55590;BME280;41452;42.780;23.116;2022-12-18T14:27:29;95688.00;;;1.86;100.00
55590;BME280;41452;42.780;23.116;2022-12-18T14:29:55;95687.28;;;1.94;100.00
55590;BME280;41452;42.780;23.116;2022-12-18T14:32:20;95657.53;;;1.70;100.00
55590;BME280;41452;42.780;23.116;2022-12-18T14:34:51;95694.78;;;1.97;100.00
55590;BME280;41452;42.780;23.116;2022-12-18T14:37:24;95693.44;;;1.93;100.00
55590;BME280;41452;42.780;23.116;2022-12-18T14:39:55;95702.03;;;1.93;100.00
55590;BME280;41452;42.780;23.116;2022-12-18T14:42:22;95647.75;;;1.64;100.00
55590;BME280;41452;42.780;23.116;2022-12-18T14:44:47;95702.06;;;1.83;100.00
55590;BME280;41452;42.780;23.116;2022-12-18T14:47:16;95672.81;;;1.63;100.00
55590;BME280;41452;42.780;23.116;2022-12-18T14:49:42;95704.00;;;1.81;100.00